Time;durP1;ratioP1;P1;durP2;ratioP2;P2;SDS_P1;SDS_P2;PMS_P1;PMS_P2;Temp;Humidity;BMP_temperature;BMP_pressure;BME280_temperature;BME280_humidity;BME280_pressure;Samples;Min_cycle;Max_cycle;Signal;HPM_P1;HPM_P2
2022/05/21 00:02:12;;;;;;;4.90;2.97;;;6.70;99.90;;;;;;5271729;28;20449;-72
2022/05/21 00:04:43;;;;;;;6.53;2.80;;;6.50;99.90;;;;;;5271762;28;20024;-73
2022/05/21 00:07:14;;;;;;;6.88;3.17;;;6.40;99.90;;;;;;5271865;28;20081;-73
2022/05/21 00:09:45;;;;;;;6.40;3.33;;;6.10;99.90;;;;;;5271696;28;20164;-73
2022/05/21 00:12:16;;;;;;;5.45;2.92;;;6.30;99.90;;;;;;5271746;28;20494;-72
2022/05/21 00:14:47;;;;;;;5.80;3.00;;;7.00;99.90;;;;;;5271564;28;20017;-72
2022/05/21 00:17:18;;;;;;;8.35;3.35;;;6.60;99.90;;;;;;5271788;28;20524;-73
2022/05/21 00:19:49;;;;;;;6.70;2.95;;;6.60;99.90;;;;;;5271316;28;20020;-73
2022/05/21 00:22:19;;;;;;;7.13;3.20;;;6.60;99.90;;;;;;5271495;28;20077;-73
2022/05/21 00:24:50;;;;;;;5.70;2.95;;;6.90;99.90;;;;;;5271610;28;20472;-72
2022/05/21 00:27:21;;;;;;;5.22;2.90;;;6.50;99.90;;;;;;5271350;28;20032;-73
2022/05/21 00:29:55;;;;;;;5.35;2.60;;;6.40;99.90;;;;;;5270652;28;20048;-73
2022/05/21 00:32:31;;;;;;;6.00;3.35;;;6.80;99.90;;;;;;5271325;28;20168;-73
2022/05/21 00:35:13;;;;;;;8.65;2.63;;;6.70;99.90;;;;;;5269659;28;20049;-73
2022/05/21 00:37:52;;;;;;;5.32;3.25;;;6.40;99.90;;;;;;5271089;28;20081;-73
2022/05/21 00:40:33;;;;;;;6.07;2.43;;;6.40;99.90;;;;;;5271357;28;20126;-73
2022/05/21 00:43:05;;;;;;;3.92;2.47;;;6.20;99.90;;;;;;5270884;28;20640;-73
2022/05/21 00:45:35;;;;;;;7.93;2.92;;;6.10;99.90;;;;;;5271174;28;20028;-72
2022/05/21 00:48:06;;;;;;;7.28;2.92;;;5.90;99.90;;;;;;5270995;28;20433;-72
2022/05/21 00:50:37;;;;;;;7.47;2.97;;;6.00;99.90;;;;;;5269205;28;20499;-72
2022/05/21 00:53:10;;;;;;;7.15;3.38;;;6.00;99.90;;;;;;5270897;28;20024;-73
2022/05/21 00:55:41;;;;;;;6.18;3.22;;;6.10;99.90;;;;;;5270687;28;20072;-73
2022/05/21 01:01:07;;;;;;;7.22;3.33;;;6.20;99.90;;;;;;5270980;28;20043;-72
2022/05/21 01:03:39;;;;;;;6.55;3.05;;;5.80;99.90;;;;;;5270603;28;20467;-72
2022/05/21 01:06:11;;;;;;;6.93;2.90;;;5.80;99.90;;;;;;5270655;28;20032;-72
2022/05/21 01:08:42;;;;;;;7.15;3.60;;;5.90;99.90;;;;;;5270504;28;20490;-73
2022/05/21 01:11:16;;;;;;;7.13;3.00;;;5.90;99.90;;;;;;5270353;28;20036;-72
2022/05/21 01:13:50;;;;;;;6.05;2.72;;;6.10;99.90;;;;;;5270353;28;20073;-73
2022/05/21 01:16:21;;;;;;;5.50;2.92;;;5.90;99.90;;;;;;5270326;28;20024;-72
2022/05/21 01:18:51;;;;;;;4.03;2.70;;;5.80;99.90;;;;;;5270254;28;20024;-72
2022/05/21 01:21:23;;;;;;;6.22;2.92;;;5.80;99.90;;;;;;5270146;28;20031;-72
2022/05/21 01:23:54;;;;;;;9.05;3.20;;;5.90;99.90;;;;;;5269049;28;20024;-72
2022/05/21 01:26:26;;;;;;;4.43;2.78;;;6.00;99.90;;;;;;5270264;28;20012;-72
2022/05/21 01:28:57;;;;;;;4.47;2.70;;;6.10;99.90;;;;;;5269943;28;20047;-72
2022/05/21 01:31:28;;;;;;;4.13;2.72;;;5.90;99.90;;;;;;5270283;28;20032;-72
2022/05/21 01:33:59;;;;;;;7.97;2.83;;;5.90;99.90;;;;;;5270010;28;20020;-73
2022/05/21 01:36:30;;;;;;;4.43;2.67;;;6.00;99.90;;;;;;5270004;28;20020;-72
2022/05/21 01:39:01;;;;;;;5.40;2.70;;;6.10;99.90;;;;;;5269944;28;20024;-72
2022/05/21 01:41:32;;;;;;;4.72;3.38;;;5.60;99.90;;;;;;5269740;28;20028;-72
2022/05/21 01:46:52;;;;;;;6.13;3.10;;;6.00;99.90;;;;;;5269815;28;20062;-72
2022/05/21 01:49:23;;;;;;;6.55;2.90;;;6.10;99.90;;;;;;5269694;28;20345;-72
2022/05/21 01:51:55;;;;;;;3.70;2.08;;;5.40;99.90;;;;;;5268399;28;20024;-72
2022/05/21 01:54:26;;;;;;;5.93;2.60;;;5.50;99.90;;;;;;5269776;28;20024;-72
2022/05/21 01:56:57;;;;;;;6.60;3.10;;;5.30;99.90;;;;;;5269666;28;20102;-72
2022/05/21 01:59:28;;;;;;;6.28;3.00;;;5.70;99.90;;;;;;5269508;28;20028;-72
2022/05/21 02:02:01;;;;;;;6.97;2.95;;;5.70;99.90;;;;;;5268811;28;20474;-72
2022/05/21 02:04:32;;;;;;;7.78;2.75;;;5.30;99.90;;;;;;5269470;28;20107;-72
2022/05/21 02:07:04;;;;;;;5.65;2.58;;;5.50;99.90;;;;;;5269531;28;20034;-73
2022/05/21 02:09:34;;;;;;;5.35;3.10;;;5.70;99.90;;;;;;5269412;28;20027;-72
2022/05/21 02:12:06;;;;;;;5.45;2.85;;;5.70;99.90;;;;;;5269447;28;20531;-72
2022/05/21 02:14:36;;;;;;;4.38;2.50;;;5.60;99.90;;;;;;5269338;28;20016;-72
2022/05/21 02:17:07;;;;;;;5.25;2.40;;;5.70;99.90;;;;;;5269277;28;20032;-72
2022/05/21 02:19:38;;;;;;;6.13;2.65;;;5.80;99.90;;;;;;5269258;28;20028;-72
2022/05/21 02:22:09;;;;;;;5.55;3.20;;;5.40;99.90;;;;;;5269709;28;20111;-72
2022/05/21 02:24:40;;;;;;;5.28;2.45;;;5.50;99.90;;;;;;5269217;28;20039;-73
2022/05/21 02:27:12;;;;;;;5.00;2.30;;;5.50;99.90;;;;;;5269345;28;20062;-73
2022/05/21 02:29:43;;;;;;;5.90;2.50;;;5.30;99.90;;;;;;5268740;28;20553;-72
2022/05/21 02:32:17;;;;;;;6.18;2.90;;;5.60;99.90;;;;;;5268028;28;20105;-72
2022/05/21 02:34:48;;;;;;;7.30;2.20;;;5.40;99.90;;;;;;5267769;28;20024;-72
2022/05/21 02:40:08;;;;;;;8.73;3.40;;;5.10;99.90;;;;;;5269116;28;20030;-72
2022/05/21 02:42:48;;;;;;;8.88;3.58;;;4.70;99.90;;;;;;5268943;28;20028;-72
2022/05/21 02:45:21;;;;;;;7.88;3.78;;;5.10;99.90;;;;;;5269059;28;20349;-72
2022/05/21 02:47:53;;;;;;;10.48;3.67;;;5.20;99.90;;;;;;5267834;28;20028;-73
2022/05/21 02:50:33;;;;;;;6.88;3.65;;;5.50;99.90;;;;;;5268867;28;20105;-72
2022/05/21 02:53:07;;;;;;;8.70;2.85;;;5.30;99.90;;;;;;5269039;28;20028;-72
2022/05/21 02:55:38;;;;;;;5.10;3.20;;;5.50;99.90;;;;;;5268945;28;20376;-72
2022/05/21 02:58:08;;;;;;;6.35;3.05;;;5.50;99.90;;;;;;5268723;28;20032;-73
2022/05/21 03:00:41;;;;;;;8.15;3.35;;;5.50;99.90;;;;;;5268890;28;20024;-72
2022/05/21 03:03:12;;;;;;;7.45;3.38;;;5.60;99.90;;;;;;5268563;28;20035;-72
2022/05/21 03:05:43;;;;;;;6.32;3.50;;;5.70;99.90;;;;;;5268755;28;20032;-72
2022/05/21 03:11:04;;;;;;;7.20;2.45;;;5.20;99.90;;;;;;5268910;28;20039;-72
2022/05/21 03:13:35;;;;;;;5.30;3.05;;;5.60;99.90;;;;;;5270637;28;20360;-72
2022/05/21 03:16:06;;;;;;;7.07;3.78;;;5.90;99.90;;;;;;5272919;28;20031;-72
2022/05/21 03:18:37;;;;;;;6.53;3.03;;;6.00;99.90;;;;;;5272571;28;20376;-73
2022/05/21 03:21:08;;;;;;;16.27;3.30;;;5.50;99.90;;;;;;5272557;28;20428;-72
2022/05/21 03:23:39;;;;;;;8.30;4.05;;;5.50;99.90;;;;;;5272603;28;20121;-72
2022/05/21 03:26:10;;;;;;;8.98;4.00;;;5.70;99.90;;;;;;5272696;28;20027;-73
2022/05/21 03:28:41;;;;;;;8.40;3.88;;;6.10;99.90;;;;;;5272233;28;20028;-72
2022/05/21 03:31:11;;;;;;;9.40;4.13;;;5.60;99.90;;;;;;5272516;28;20036;-72
2022/05/21 03:33:42;;;;;;;12.93;4.50;;;5.50;99.90;;;;;;5272384;28;20081;-72
2022/05/21 03:36:13;;;;;;;9.40;4.85;;;5.60;99.90;;;;;;5272298;28;20035;-72
2022/05/21 03:38:44;;;;;;;8.93;4.07;;;5.60;99.90;;;;;;5272370;28;20024;-72
2022/05/21 03:41:15;;;;;;;12.68;4.32;;;5.90;99.90;;;;;;5272509;28;20515;-73
2022/05/21 03:43:46;;;;;;;7.65;3.40;;;6.00;99.90;;;;;;5272306;28;20067;-72
2022/05/21 03:46:16;;;;;;;9.02;3.22;;;6.00;99.90;;;;;;5272206;28;20054;-72
2022/05/21 03:48:48;;;;;;;8.82;3.28;;;6.40;99.90;;;;;;5271994;28;20060;-72
2022/05/21 03:51:19;;;;;;;8.98;3.42;;;6.60;99.90;;;;;;5272147;28;20429;-72
2022/05/21 03:53:50;;;;;;;10.18;3.53;;;6.40;99.90;;;;;;5272181;28;20024;-73
2022/05/21 03:56:21;;;;;;;10.32;3.65;;;6.30;99.90;;;;;;5272127;28;20176;-73
2022/05/21 03:58:51;;;;;;;8.88;3.95;;;6.60;99.90;;;;;;5270748;28;20038;-72
2022/05/21 04:01:22;;;;;;;9.52;3.42;;;6.60;99.90;;;;;;5271873;28;20024;-73
2022/05/21 04:03:54;;;;;;;8.18;3.55;;;6.50;99.90;;;;;;5271898;28;20016;-73
2022/05/21 04:06:25;;;;;;;7.18;3.03;;;7.10;99.90;;;;;;5271881;28;20038;-72
2022/05/21 04:08:56;;;;;;;8.30;3.45;;;7.10;99.90;;;;;;5271849;28;20034;-72
2022/05/21 04:11:27;;;;;;;9.10;3.20;;;6.80;99.90;;;;;;5271611;28;20090;-73
2022/05/21 04:13:58;;;;;;;10.05;3.15;;;7.00;99.90;;;;;;5271721;28;20023;-72
2022/05/21 04:16:29;;;;;;;6.47;2.58;;;7.30;99.90;;;;;;5271329;28;20024;-72
2022/05/21 04:19:00;;;;;;;7.97;4.20;;;7.80;99.90;;;;;;5271388;28;20038;-72
2022/05/21 04:21:30;;;;;;;5.32;2.47;;;7.70;99.90;;;;;;5269889;28;20031;-73
2022/05/21 04:24:01;;;;;;;8.90;3.17;;;7.90;99.90;;;;;;5271564;28;20020;-72
2022/05/21 04:26:32;;;;;;;9.98;3.45;;;8.10;99.90;;;;;;5270821;28;20039;-72
2022/05/21 04:29:03;;;;;;;11.85;3.75;;;8.40;99.90;;;;;;5271238;28;20044;-73
2022/05/21 04:31:34;;;;;;;7.35;3.40;;;8.10;99.90;;;;;;5271290;28;20044;-73
2022/05/21 04:34:05;;;;;;;7.65;3.45;;;8.50;99.90;;;;;;5271161;28;20030;-73
2022/05/21 04:36:35;;;;;;;9.07;3.63;;;9.40;99.90;;;;;;5271305;28;20028;-73
2022/05/21 04:39:07;;;;;;;11.68;3.45;;;9.50;99.90;;;;;;5271232;28;20171;-73
2022/05/21 04:41:37;;;;;;;7.95;3.83;;;9.50;99.90;;;;;;5271041;28;20023;-73
2022/05/21 04:44:09;;;;;;;8.38;4.03;;;9.50;99.90;;;;;;5271999;28;20391;-73
2022/05/21 04:46:40;;;;;;;9.95;3.47;;;9.80;99.90;;;;;;5276174;28;20031;-73
2022/05/21 04:49:11;;;;;;;11.77;3.35;;;9.80;99.90;;;;;;5291981;28;20024;-73
2022/05/21 04:51:41;;;;;;;10.15;4.00;;;9.50;99.90;;;;;;5291939;28;20036;-73
2022/05/21 04:54:12;;;;;;;10.07;3.70;;;10.30;99.90;;;;;;5291947;28;20068;-73
2022/05/21 04:56:43;;;;;;;8.75;3.38;;;10.60;99.90;;;;;;5292020;28;20027;-73
2022/05/21 04:59:14;;;;;;;8.05;3.70;;;10.60;99.90;;;;;;5291695;28;20023;-73
2022/05/21 05:01:44;;;;;;;8.27;3.97;;;10.80;99.90;;;;;;5291768;28;20081;-73
2022/05/21 05:04:15;;;;;;;8.02;3.47;;;10.90;99.90;;;;;;5291801;28;20203;-73
2022/05/21 05:06:46;;;;;;;8.38;3.53;;;11.30;99.90;;;;;;5291751;28;20031;-73
2022/05/21 05:09:22;;;;;;;9.57;3.75;;;11.70;99.90;;;;;;5291675;28;20035;-73
2022/05/21 05:11:53;;;;;;;9.20;3.40;;;11.70;99.90;;;;;;5291665;28;20031;-73
2022/05/21 05:14:24;;;;;;;8.52;3.85;;;11.70;99.90;;;;;;5291426;28;20039;-73
2022/05/21 05:16:55;;;;;;;7.32;3.35;;;11.50;99.90;;;;;;5291595;28;20031;-73
2022/05/21 05:19:29;;;;;;;7.28;3.67;;;12.00;99.90;;;;;;5291316;28;20024;-73
2022/05/21 05:22:00;;;;;;;8.43;3.22;;;12.30;99.90;;;;;;5290039;28;20045;-73
2022/05/21 05:24:31;;;;;;;7.55;3.45;;;11.90;99.90;;;;;;5291257;28;20023;-73
2022/05/21 05:27:02;;;;;;;7.30;3.13;;;12.40;99.90;;;;;;5291136;28;20432;-73
2022/05/21 05:29:33;;;;;;;7.93;3.97;;;12.90;99.90;;;;;;5290962;28;20031;-73
2022/05/21 05:32:05;;;;;;;8.38;4.13;;;12.80;99.90;;;;;;5291182;28;20032;-73
2022/05/21 05:34:37;;;;;;;5.97;3.20;;;12.80;99.90;;;;;;5291028;28;20016;-73
2022/05/21 05:37:07;;;;;;;7.07;3.13;;;13.20;99.90;;;;;;5290084;28;20531;-73
2022/05/21 05:39:38;;;;;;;7.05;2.90;;;13.70;99.90;;;;;;5291099;28;20098;-73
2022/05/21 05:42:09;;;;;;;8.63;3.95;;;14.00;99.90;;;;;;5291008;28;20049;-74
2022/05/21 05:44:40;;;;;;;8.60;3.20;;;13.90;99.90;;;;;;5275526;27;20020;-73
2022/05/21 05:47:11;;;;;;;6.82;2.90;;;14.40;99.90;;;;;;5270018;28;20050;-74
2022/05/21 05:49:42;;;;;;;6.10;2.67;;;15.00;99.90;;;;;;5276337;28;20070;-74
2022/05/21 05:52:13;;;;;;;6.32;2.70;;;15.20;99.90;;;;;;5290768;28;20038;-73
2022/05/21 05:54:43;;;;;;;6.20;2.72;;;15.20;99.90;;;;;;5290747;28;20816;-72
2022/05/21 05:57:15;;;;;;;6.90;2.30;;;15.20;99.90;;;;;;5290830;28;20027;-73
2022/05/21 05:59:48;;;;;;;4.22;2.05;;;15.30;99.90;;;;;;5290503;28;20448;-73
2022/05/21 06:05:17;;;;;;;5.10;2.35;;;15.40;99.90;;;;;;5290748;28;20034;-74
2022/05/21 06:07:53;;;;;;;5.80;1.73;;;15.60;99.90;;;;;;5290604;28;20027;-73
2022/05/21 06:10:30;;;;;;;2.75;1.30;;;16.70;99.90;;;;;;5290458;28;20027;-73
2022/05/21 06:13:01;;;;;;;3.63;1.77;;;17.10;99.90;;;;;;5290556;28;20417;-73
2022/05/21 06:15:33;;;;;;;4.30;2.13;;;17.40;99.90;;;;;;5283188;28;20036;-73
2022/05/21 06:18:17;;;;;;;5.80;2.35;;;17.90;99.90;;;;;;5276214;28;20038;-73
2022/05/21 06:20:51;;;;;;;6.32;2.35;;;17.90;99.90;;;;;;5286973;28;20387;-73
2022/05/21 06:23:22;;;;;;;5.95;3.15;;;18.20;99.90;;;;;;5269959;28;20020;-73
2022/05/21 06:25:53;;;;;;;5.65;3.22;;;18.30;99.90;;;;;;5280600;28;20023;-73
2022/05/21 06:28:24;;;;;;;7.68;3.30;;;18.40;99.90;;;;;;5290045;28;20016;-73
2022/05/21 06:30:57;;;;;;;5.35;2.90;;;18.60;99.90;;;;;;5289972;28;20120;-73
2022/05/21 06:33:29;;;;;;;4.82;2.40;;;18.70;99.90;;;;;;5289051;28;20024;-73
2022/05/21 06:36:12;;;;;;;3.65;2.05;;;18.90;99.90;;;;;;5279346;28;20375;-73
2022/05/21 06:38:44;;;;;;;3.13;1.55;;;18.40;99.90;;;;;;5277205;28;20084;-73
2022/05/21 06:41:15;;;;;;;3.10;1.20;;;18.60;99.90;;;;;;5269218;28;20491;-73
2022/05/21 06:43:45;;;;;;;5.57;1.10;;;19.20;99.90;;;;;;5269053;28;20073;-73
2022/05/21 06:46:18;;;;;;;5.07;2.03;;;19.50;99.90;;;;;;5262995;28;20035;-73
2022/05/21 06:48:49;;;;;;;4.60;1.88;;;19.80;99.90;;;;;;5255740;28;20039;-72
2022/05/21 06:51:19;;;;;;;3.92;2.25;;;19.80;99.90;;;;;;5270544;28;20035;-73
2022/05/21 06:53:50;;;;;;;3.67;1.92;;;19.80;99.90;;;;;;5268943;28;20433;-73
2022/05/21 06:56:21;;;;;;;2.33;1.45;;;19.90;99.90;;;;;;5273209;28;20024;-73
2022/05/21 06:58:52;;;;;;;3.67;1.98;;;20.20;99.90;;;;;;5271739;28;20085;-73
2022/05/21 07:01:23;;;;;;;2.65;1.60;;;20.20;99.90;;;;;;5273130;28;20040;-73
2022/05/21 07:03:53;;;;;;;4.40;1.83;;;20.20;99.90;;;;;;5273131;28;20024;-73
2022/05/21 07:09:16;;;;;;;3.42;2.00;;;20.70;99.90;;;;;;5271511;28;20026;-73
2022/05/21 07:11:48;;;;;;;5.68;2.30;;;20.90;99.90;;;;;;5272042;28;20123;-73
2022/05/21 07:14:20;;;;;;;3.92;2.17;;;20.80;99.90;;;;;;5271648;28;20013;-72
2022/05/21 07:16:50;;;;;;;4.32;2.40;;;21.00;99.90;;;;;;5272874;28;20031;-72
2022/05/21 07:19:21;;;;;;;4.45;1.75;;;21.00;99.90;;;;;;5272690;28;20349;-73
2022/05/21 07:21:52;;;;;;;5.60;2.95;;;20.90;99.90;;;;;;5272651;28;20085;-73
2022/05/21 07:24:24;;;;;;;4.93;2.30;;;21.30;99.90;;;;;;5272830;28;20107;-73
2022/05/21 07:26:55;;;;;;;6.43;2.65;;;21.20;99.90;;;;;;5272610;28;20056;-73
2022/05/21 07:29:26;;;;;;;12.38;3.92;;;21.30;99.90;;;;;;5272192;28;20063;-73
2022/05/21 07:31:57;;;;;;;6.80;2.47;;;21.60;99.90;;;;;;5272444;28;20051;-73
2022/05/21 07:34:27;;;;;;;5.20;2.67;;;21.60;99.90;;;;;;5272177;28;20519;-74
2022/05/21 07:36:58;;;;;;;4.40;2.58;;;22.20;99.90;;;;;;5263248;28;20035;-73
2022/05/21 07:39:29;;;;;;;5.75;2.53;;;22.00;99.90;;;;;;5267983;28;20058;-73
2022/05/21 07:42:00;;;;;;;7.65;3.65;;;22.10;99.90;;;;;;5272498;28;20039;-73
2022/05/21 07:44:31;;;;;;;5.38;2.88;;;22.10;99.90;;;;;;5278976;28;20041;-73
2022/05/21 07:47:02;;;;;;;2.60;1.50;;;22.10;99.90;;;;;;5272506;28;20054;-74
2022/05/21 07:49:33;;;;;;;1.88;1.02;;;22.10;99.90;;;;;;5286671;28;20023;-73
2022/05/21 07:52:04;;;;;;;1.35;0.80;;;22.30;78.40;;;;;;5293156;28;20032;-73
2022/05/21 07:54:36;;;;;;;1.48;0.90;;;22.40;67.20;;;;;;5292684;28;20023;-73
2022/05/21 07:57:06;;;;;;;2.10;1.00;;;22.80;76.10;;;;;;5289353;28;20024;-73
2022/05/21 07:59:38;;;;;;;1.75;1.00;;;22.70;71.40;;;;;;5275039;28;20443;-73
2022/05/21 08:02:17;;;;;;;3.17;1.75;;;23.10;78.70;;;;;;5293357;28;20336;-73
2022/05/21 08:04:48;;;;;;;2.50;1.80;;;22.90;82.50;;;;;;5292887;28;20019;-73
2022/05/21 08:07:21;;;;;;;5.50;3.47;;;23.20;82.90;;;;;;5283430;28;20111;-73
2022/05/21 08:09:52;;;;;;;3.33;2.08;;;23.10;86.40;;;;;;5271517;28;20020;-73
2022/05/21 08:12:23;;;;;;;3.08;2.00;;;23.50;86.20;;;;;;5271552;28;20043;-73
2022/05/21 08:14:53;;;;;;;1.88;1.10;;;23.40;85.70;;;;;;5271140;28;20089;-73
2022/05/21 08:17:24;;;;;;;4.47;1.83;;;23.70;83.50;;;;;;5271899;28;20027;-73
2022/05/21 08:19:55;;;;;;;3.50;2.28;;;23.40;81.20;;;;;;5271434;28;20027;-73
2022/05/21 08:28:04;;;;;;;2.08;1.50;;;23.30;79.40;;;;;;5250887;28;20045;-73
2022/05/21 08:30:35;;;;;;;2.40;1.52;;;23.90;83.50;;;;;;5250403;28;20496;-73
2022/05/21 08:33:07;;;;;;;4.32;1.73;;;24.20;84.60;;;;;;5257624;28;20036;-74
2022/05/21 08:35:39;;;;;;;3.53;1.85;;;24.50;82.50;;;;;;5271336;28;20050;-73
2022/05/21 08:38:11;;;;;;;4.22;2.72;;;24.20;80.50;;;;;;5271347;28;20027;-73
2022/05/21 08:40:50;;;;;;;5.82;2.50;;;24.20;74.30;;;;;;5271117;28;20020;-73
2022/05/21 08:43:25;;;;;;;7.07;3.38;;;24.40;70.80;;;;;;5271215;28;20054;-73
2022/05/21 08:46:17;;;;;;;5.80;3.13;;;24.60;74.90;;;;;;5271179;28;20024;-73
2022/05/21 08:49:01;;;;;;;4.90;2.90;;;24.30;67.30;;;;;;5270945;28;20412;-73
2022/05/21 08:51:42;;;;;;;6.32;3.05;;;24.10;64.80;;;;;;5270919;28;20085;-73
2022/05/21 08:54:13;;;;;;;8.30;4.35;;;24.50;61.60;;;;;;5271103;28;20463;-73
2022/05/21 08:56:44;;;;;;;5.85;3.20;;;24.70;63.70;;;;;;5271144;28;20032;-73
2022/05/21 08:59:17;;;;;;;4.43;2.58;;;24.80;57.70;;;;;;5269404;28;20028;-73
2022/05/21 09:01:48;;;;;;;10.00;4.85;;;24.60;55.20;;;;;;5279731;28;20040;-73
2022/05/21 09:04:26;;;;;;;8.48;4.95;;;25.00;61.20;;;;;;5289881;28;20030;-73
2022/05/21 09:07:02;;;;;;;7.15;3.95;;;25.00;57.10;;;;;;5283921;28;20049;-73
2022/05/21 09:10:05;;;;;;;6.80;4.20;;;25.10;52.50;;;;;;5291841;28;20024;-73
2022/05/21 09:12:55;;;;;;;9.88;5.10;;;24.90;45.20;;;;;;5256412;28;20083;-73
2022/05/21 09:18:16;;;;;;;6.88;3.85;;;24.80;46.60;;;;;;5249470;28;20031;-73
2022/05/21 09:21:12;;;;;;;6.15;4.00;;;24.90;53.30;;;;;;5249432;28;20416;-73
2022/05/21 09:23:58;;;;;;;8.90;5.10;;;24.90;51.40;;;;;;5251961;28;20029;-73
2022/05/21 09:26:50;;;;;;;11.75;5.40;;;24.30;51.00;;;;;;5270913;28;20063;-73
2022/05/21 09:29:26;;;;;;;11.52;5.00;;;24.50;52.30;;;;;;5269900;28;20079;-73
2022/05/21 09:31:58;;;;;;;9.95;4.43;;;24.90;52.10;;;;;;5264279;28;20139;-74
2022/05/21 09:34:31;;;;;;;4.68;2.63;;;24.80;52.40;;;;;;5261419;28;20055;-72
2022/05/21 09:37:03;;;;;;;3.80;2.53;;;25.00;51.10;;;;;;5269903;28;20047;-73
2022/05/21 09:39:37;;;;;;;4.15;2.53;;;25.60;52.10;;;;;;5270028;28;20068;-73
2022/05/21 09:45:21;;;;;;;4.03;2.20;;;26.10;60.50;;;;;;5270502;28;20018;-74
2022/05/21 09:45:23;;;;;;;5.40;2.70;;;26.30;64.90;;;;;;5269636;28;20406;-74
2022/05/21 09:48:05;;;;;;;5.30;2.17;;;26.00;62.00;;;;;;5269485;28;20026;-74
2022/05/21 09:50:46;;;;;;;3.40;1.65;;;26.30;63.10;;;;;;5270894;28;20418;-75
2022/05/21 09:53:27;;;;;;;4.35;1.55;;;25.80;57.00;;;;;;5269660;28;20024;-74
2022/05/21 09:56:03;;;;;;;2.80;1.20;;;26.20;63.60;;;;;;5269840;28;20039;-74
2022/05/21 09:58:38;;;;;;;3.00;1.23;;;26.70;60.00;;;;;;5269507;28;20032;-74
2022/05/21 10:01:31;;;;;;;2.45;1.35;;;26.70;63.80;;;;;;5269529;28;20111;-74
2022/05/21 10:04:16;;;;;;;2.85;1.80;;;26.40;58.20;;;;;;5270407;28;20050;-73
2022/05/21 10:06:54;;;;;;;4.20;1.88;;;26.50;58.90;;;;;;5255321;28;20392;-73
2022/05/21 10:12:36;;;;;;;2.83;1.10;;;26.80;60.10;;;;;;5249369;28;20089;-74
2022/05/21 10:15:16;;;;;;;1.63;0.95;;;26.90;58.90;;;;;;5249262;28;20047;-73
2022/05/21 10:17:59;;;;;;;3.67;1.98;;;26.70;59.50;;;;;;5249292;28;20101;-74
2022/05/21 10:20:38;;;;;;;6.97;3.75;;;26.80;57.40;;;;;;5249035;28;20031;-75
2022/05/21 10:23:15;;;;;;;;;;;26.70;59.80;;;;;;5250002;28;20032;-75
2022/05/21 10:26:02;;;;;;;1.98;1.00;;;26.80;58.30;;;;;;5290628;28;19910;-75
2022/05/21 10:29:12;;;;;;;1.70;0.85;;;26.50;57.20;;;;;;5289453;28;20034;-76
2022/05/21 10:31:48;;;;;;;2.67;0.80;;;26.80;57.80;;;;;;5290665;28;20035;-75
2022/05/21 10:34:45;;;;;;;2.13;0.60;;;26.70;56.50;;;;;;5291220;28;20031;-74
2022/05/21 10:37:35;;;;;;;2.95;1.00;;;26.80;56.40;;;;;;5290307;28;20028;-74
2022/05/21 10:40:38;;;;;;;0.82;0.50;;;27.20;57.60;;;;;;5280185;28;20089;-75
2022/05/21 10:43:18;;;;;;;1.42;0.70;;;26.80;53.50;;;;;;5278481;28;20032;-75
2022/05/21 10:46:09;;;;;;;4.78;0.90;;;26.90;57.00;;;;;;5278837;28;20032;-74
2022/05/21 10:49:08;;;;;;;2.15;0.85;;;26.80;56.00;;;;;;5277777;28;20082;-74
2022/05/21 10:51:42;;;;;;;;;;;27.20;55.90;;;;;;5277880;28;20106;-73
2022/05/21 10:54:27;;;;;;;1.10;0.60;;;26.50;53.00;;;;;;5268803;28;20264;-74
2022/05/21 10:57:04;;;;;;;1.90;0.88;;;27.10;55.10;;;;;;5268107;28;20039;-74
2022/05/21 10:59:51;;;;;;;2.28;0.65;;;26.60;52.20;;;;;;5280859;28;20065;-74
2022/05/21 11:03:06;;;;;;;1.40;0.80;;;26.70;50.60;;;;;;5290005;28;20505;-74
2022/05/21 11:06:00;;;;;;;4.05;1.30;;;27.50;53.20;;;;;;5277768;28;20038;-74
2022/05/21 11:08:49;;;;;;;3.58;1.23;;;27.40;53.60;;;;;;5289784;28;20028;-74
2022/05/21 11:11:49;;;;;;;2.08;0.90;;;27.10;54.00;;;;;;5290242;28;20428;-74
2022/05/21 11:15:01;;;;;;;3.90;2.40;;;27.60;52.70;;;;;;5290108;28;20020;-74
2022/05/21 11:17:42;;;;;;;4.82;3.13;;;27.40;53.30;;;;;;5290158;28;20035;-74
2022/05/21 11:20:20;;;;;;;2.45;0.70;;;27.40;50.40;;;;;;5289944;28;20463;-75
2022/05/21 11:23:15;;;;;;;1.67;0.60;;;27.40;51.90;;;;;;5290329;28;20074;-75
2022/05/21 11:25:53;;;;;;;2.47;0.93;;;27.70;53.40;;;;;;5286736;28;20760;-75
2022/05/21 11:28:34;;;;;;;2.83;1.42;;;27.50;52.90;;;;;;5277344;28;20027;-74
2022/05/21 11:31:12;;;;;;;1.92;1.00;;;27.30;53.20;;;;;;5268792;28;20369;-74
2022/05/21 11:37:37;;;;;;;1.60;0.63;;;27.80;52.90;;;;;;5272800;28;20020;-75
2022/05/21 11:39:38;;;;;;;3.53;0.80;;;27.50;52.20;;;;;;5267904;28;20123;-75
2022/05/21 11:42:17;;;;;;;1.42;0.80;;;27.40;55.00;;;;;;5272238;28;20020;-74
2022/05/21 11:45:11;;;;;;;1.48;0.50;;;27.80;55.10;;;;;;5272404;28;20032;-75
2022/05/21 11:47:52;;;;;;;1.75;0.60;;;27.50;52.80;;;;;;5272349;28;20375;-74
2022/05/21 11:50:29;;;;;;;2.50;0.85;;;27.10;53.50;;;;;;5272429;28;20024;-74
2022/05/21 11:53:47;;;;;;;2.03;0.80;;;28.20;57.30;;;;;;5272284;28;20032;-71
2022/05/21 11:56:18;;;;;;;2.15;0.80;;;28.00;56.20;;;;;;5248874;28;20024;-72
2022/05/21 11:58:58;;;;;;;1.95;1.05;;;28.10;54.80;;;;;;5248283;28;20043;-75
2022/05/21 12:01:38;;;;;;;2.55;0.70;;;27.70;55.20;;;;;;5249207;28;20155;-73
2022/05/21 12:04:33;;;;;;;1.88;0.77;;;27.20;54.30;;;;;;5248406;28;20079;-73
2022/05/21 12:07:12;;;;;;;5.07;1.05;;;27.80;56.40;;;;;;5248394;28;20123;-75
2022/05/21 12:10:08;;;;;;;3.65;1.00;;;28.20;56.10;;;;;;5248899;28;20067;-75
2022/05/21 12:13:12;;;;;;;6.57;1.08;;;28.10;56.20;;;;;;5248408;28;20142;-74
2022/05/21 12:15:49;;;;;;;2.60;0.90;;;27.80;55.30;;;;;;5253654;28;20109;-75
2022/05/21 12:18:42;;;;;;;1.83;0.90;;;27.40;55.60;;;;;;5265685;28;20059;-73
2022/05/21 12:21:35;;;;;;;2.03;0.93;;;27.60;56.10;;;;;;5252244;28;20028;-74
2022/05/21 12:24:26;;;;;;;4.25;0.70;;;27.90;55.10;;;;;;5256137;28;20058;-73
2022/05/21 12:27:27;;;;;;;3.60;1.20;;;27.50;54.30;;;;;;5279850;28;20444;-72
2022/05/21 12:30:02;;;;;;;2.15;0.88;;;27.70;57.20;;;;;;5292033;28;20051;-73
2022/05/21 12:32:40;;;;;;;1.77;0.80;;;28.20;57.30;;;;;;5292544;28;20421;-72
2022/05/21 12:35:44;;;;;;;5.32;0.75;;;27.90;54.40;;;;;;5292208;28;20027;-74
2022/05/21 12:38:30;;;;;;;3.03;1.33;;;27.80;55.00;;;;;;5292225;27;20467;-73
2022/05/21 12:41:10;;;;;;;2.40;1.05;;;28.00;56.50;;;;;;5292245;28;20188;-75
2022/05/21 12:43:49;;;;;;;9.00;1.08;;;28.10;57.80;;;;;;5291822;28;20020;-75
2022/05/21 12:46:24;;;;;;;10.82;1.33;;;27.90;55.80;;;;;;5274830;28;20129;-72
2022/05/21 12:49:04;;;;;;;2.88;1.10;;;27.90;55.50;;;;;;5285012;28;20494;-74
2022/05/21 12:51:48;;;;;;;3.35;1.20;;;28.00;58.50;;;;;;5275340;28;20104;-75
2022/05/21 12:54:27;;;;;;;2.33;1.05;;;28.20;58.60;;;;;;5282574;28;20046;-74
2022/05/21 12:57:11;;;;;;;8.80;1.38;;;27.60;57.50;;;;;;5274520;28;20031;-72
2022/05/21 12:59:41;;;;;;;2.03;1.33;;;28.20;59.00;;;;;;5280167;28;20661;-72
2022/05/21 13:02:16;;;;;;;9.00;1.30;;;28.60;59.90;;;;;;5279693;28;20028;-73
2022/05/21 13:04:49;;;;;;;3.10;1.40;;;28.50;60.20;;;;;;5270412;28;20016;-72
2022/05/21 13:07:27;;;;;;;3.72;1.63;;;28.40;59.50;;;;;;5270321;28;20020;-72
2022/05/21 13:10:04;;;;;;;5.10;1.88;;;28.30;59.70;;;;;;5270355;28;20429;-72
2022/05/21 13:12:43;;;;;;;4.38;1.88;;;28.00;59.10;;;;;;5270338;28;20028;-72
2022/05/21 13:15:21;;;;;;;3.53;1.98;;;28.40;60.20;;;;;;5275279;28;20031;-73
2022/05/21 13:18:25;;;;;;;2.83;1.65;;;27.90;59.20;;;;;;5284057;28;20066;-72
2022/05/21 13:21:14;;;;;;;4.45;2.40;;;27.70;59.80;;;;;;5291364;28;20032;-72
2022/05/21 13:24:13;;;;;;;3.72;1.85;;;27.70;60.10;;;;;;5291247;28;20391;-71
2022/05/21 13:26:43;;;;;;;39.27;3.67;;;28.10;60.60;;;;;;5291239;28;20456;-71
2022/05/21 13:29:21;;;;;;;49.90;3.83;;;28.40;61.30;;;;;;5289635;28;20044;-72
2022/05/21 13:31:54;;;;;;;6.13;1.20;;;28.20;61.30;;;;;;5291110;28;20036;-72
2022/05/21 13:34:34;;;;;;;4.55;1.40;;;28.20;60.30;;;;;;5290865;28;20030;-73
2022/05/21 13:37:06;;;;;;;4.82;1.20;;;28.20;61.10;;;;;;5290926;28;20023;-71
2022/05/21 13:39:38;;;;;;;4.35;1.40;;;28.80;59.70;;;;;;5290895;28;20471;-71
2022/05/21 13:42:13;;;;;;;3.83;1.88;;;28.20;62.10;;;;;;5290577;28;20026;-72
2022/05/21 13:44:47;;;;;;;2.58;1.05;;;28.40;60.00;;;;;;5291002;28;20476;-72
2022/05/21 13:47:24;;;;;;;2.50;1.02;;;28.70;59.70;;;;;;5290728;28;20024;-74
2022/05/21 13:49:55;;;;;;;13.23;1.70;;;28.30;59.60;;;;;;5290964;28;20035;-72
2022/05/21 13:52:28;;;;;;;8.23;1.40;;;28.20;61.90;;;;;;5290910;28;20551;-72
2022/05/21 13:54:59;;;;;;;5.85;1.33;;;27.90;58.80;;;;;;5290799;28;20055;-72
2022/05/21 13:57:34;;;;;;;2.75;1.23;;;28.70;59.90;;;;;;5289723;28;20028;-72
2022/05/21 14:00:21;;;;;;;3.28;1.30;;;28.40;59.80;;;;;;5290509;28;20027;-73
2022/05/21 14:02:54;;;;;;;2.38;1.20;;;28.00;61.50;;;;;;5290848;28;20161;-73
2022/05/21 14:05:46;;;;;;;3.75;1.05;;;28.50;59.10;;;;;;5290637;28;20023;-72
2022/05/21 14:08:33;;;;;;;4.32;1.20;;;28.00;60.00;;;;;;5290731;28;20370;-72